sensor_id;sensor_type;location;lat;lon;timestamp;noise_LAeq;noise_LA_min;noise_LA_max;noise_LA01;noise_LA95
73822;Laerm;62152;52.078;8.414;2023-04-03T00:05:28;54.42;52.33;55.69;;
73822;Laerm;62152;52.078;8.414;2023-04-03T00:13:30;54.41;52.40;55.53;;
73822;Laerm;62152;52.078;8.414;2023-04-03T00:17:31;54.44;52.90;55.62;;
73822;Laerm;62152;52.078;8.414;2023-04-03T00:21:31;54.44;53.12;55.66;;
73822;Laerm;62152;52.078;8.414;2023-04-03T00:25:33;54.46;53.06;56.94;;
73822;Laerm;62152;52.078;8.414;2023-04-03T00:29:34;54.46;52.35;55.67;;
73822;Laerm;62152;52.078;8.414;2023-04-03T00:33:34;54.47;53.16;55.65;;
73822;Laerm;62152;52.078;8.414;2023-04-03T00:37:35;54.46;53.08;55.61;;
73822;Laerm;62152;52.078;8.414;2023-04-03T00:41:37;54.47;53.11;55.53;;
73822;Laerm;62152;52.078;8.414;2023-04-03T00:49:40;54.45;52.36;55.65;;
73822;Laerm;62152;52.078;8.414;2023-04-03T00:53:44;54.46;53.17;55.69;;
73822;Laerm;62152;52.078;8.414;2023-04-03T01:01:48;54.42;51.95;55.62;;
73822;Laerm;62152;52.078;8.414;2023-04-03T01:05:50;54.45;53.01;55.71;;
73822;Laerm;62152;52.078;8.414;2023-04-03T01:17:55;54.42;52.11;55.68;;
73822;Laerm;62152;52.078;8.414;2023-04-03T01:34:12;54.43;52.41;55.65;;
73822;Laerm;62152;52.078;8.414;2023-04-03T01:38:12;54.47;53.17;55.63;;
73822;Laerm;62152;52.078;8.414;2023-04-03T01:54:19;54.42;52.47;55.64;;
73822;Laerm;62152;52.078;8.414;2023-04-03T02:02:22;54.42;52.33;55.69;;
73822;Laerm;62152;52.078;8.414;2023-04-03T02:06:24;54.45;52.96;55.58;;
73822;Laerm;62152;52.078;8.414;2023-04-03T02:10:25;54.45;53.04;55.74;;
73822;Laerm;62152;52.078;8.414;2023-04-03T02:14:25;54.43;52.92;55.57;;
73822;Laerm;62152;52.078;8.414;2023-04-03T02:18:26;54.45;53.24;55.72;;
73822;Laerm;62152;52.078;8.414;2023-04-03T02:30:28;54.43;52.47;55.68;;
73822;Laerm;62152;52.078;8.414;2023-04-03T02:34:29;54.45;53.15;56.67;;
73822;Laerm;62152;52.078;8.414;2023-04-03T02:38:34;54.46;53.03;55.96;;
73822;Laerm;62152;52.078;8.414;2023-04-03T02:42:35;54.46;52.88;55.85;;
73822;Laerm;62152;52.078;8.414;2023-04-03T02:46:37;54.46;53.05;55.94;;
73822;Laerm;62152;52.078;8.414;2023-04-03T02:54:39;54.42;52.49;55.61;;
73822;Laerm;62152;52.078;8.414;2023-04-03T03:02:43;54.42;53.02;55.63;;
73822;Laerm;62152;52.078;8.414;2023-04-03T03:06:44;54.45;53.08;55.60;;
73822;Laerm;62152;52.078;8.414;2023-04-03T03:14:46;54.42;52.59;55.71;;
73822;Laerm;62152;52.078;8.414;2023-04-03T03:34:51;54.43;52.54;56.34;;
73822;Laerm;62152;52.078;8.414;2023-04-03T03:46:54;54.44;51.83;55.88;;
73822;Laerm;62152;52.078;8.414;2023-04-03T03:50:55;54.47;53.11;55.74;;
73822;Laerm;62152;52.078;8.414;2023-04-03T03:54:59;54.46;53.21;56.64;;
73822;Laerm;62152;52.078;8.414;2023-04-03T03:59:01;54.44;53.07;56.21;;
73822;Laerm;62152;52.078;8.414;2023-04-03T04:07:05;54.43;52.56;55.75;;
73822;Laerm;62152;52.078;8.414;2023-04-03T04:11:08;54.46;52.88;55.73;;
73822;Laerm;62152;52.078;8.414;2023-04-03T04:15:11;54.46;52.96;55.68;;
73822;Laerm;62152;52.078;8.414;2023-04-03T04:19:12;54.45;52.82;55.65;;
73822;Laerm;62152;52.078;8.414;2023-04-03T04:23:13;54.46;52.85;55.76;;
73822;Laerm;62152;52.078;8.414;2023-04-03T04:39:19;54.44;51.70;56.70;;
73822;Laerm;62152;52.078;8.414;2023-04-03T04:47:24;54.43;52.75;55.69;;
73822;Laerm;62152;52.078;8.414;2023-04-03T04:51:25;54.51;53.13;71.08;;
73822;Laerm;62152;52.078;8.414;2023-04-03T04:59:26;54.43;52.59;55.75;;
73822;Laerm;62152;52.078;8.414;2023-04-03T05:11:33;54.44;51.94;55.83;;
73822;Laerm;62152;52.078;8.414;2023-04-03T05:15:34;54.46;52.92;55.75;;
73822;Laerm;62152;52.078;8.414;2023-04-03T05:23:38;61.23;53.07;85.78;;
73822;Laerm;62152;52.078;8.414;2023-04-03T05:27:40;58.08;52.95;85.59;;
73822;Laerm;62152;52.078;8.414;2023-04-03T05:31:40;54.46;53.28;55.95;;
73822;Laerm;62152;52.078;8.414;2023-04-03T05:35:44;54.46;53.14;55.76;;
73822;Laerm;62152;52.078;8.414;2023-04-03T05:39:50;54.47;52.86;63.52;;
73822;Laerm;62152;52.078;8.414;2023-04-03T05:43:51;54.47;53.22;56.23;;
73822;Laerm;62152;52.078;8.414;2023-04-03T05:47:53;54.48;53.10;55.75;;
73822;Laerm;62152;52.078;8.414;2023-04-03T05:56:00;54.44;52.06;55.77;;
73822;Laerm;62152;52.078;8.414;2023-04-03T06:04:04;54.43;52.23;55.73;;
73822;Laerm;62152;52.078;8.414;2023-04-03T06:08:06;57.98;51.81;81.03;;
73822;Laerm;62152;52.078;8.414;2023-04-03T06:24:12;54.59;52.64;59.26;;
73822;Laerm;62152;52.078;8.414;2023-04-03T06:36:15;55.23;52.50;80.19;;
73822;Laerm;62152;52.078;8.414;2023-04-03T06:40:21;57.07;51.53;81.86;;
73822;Laerm;62152;52.078;8.414;2023-04-03T06:44:22;58.08;53.11;78.08;;
73822;Laerm;62152;52.078;8.414;2023-04-03T06:48:23;55.49;50.81;75.43;;
73822;Laerm;62152;52.078;8.414;2023-04-03T06:52:23;58.53;51.72;86.44;;
73822;Laerm;62152;52.078;8.414;2023-04-03T06:56:26;59.80;52.56;88.03;;
73822;Laerm;62152;52.078;8.414;2023-04-03T07:00:27;57.18;51.41;87.73;;
73822;Laerm;62152;52.078;8.414;2023-04-03T07:04:27;55.80;52.94;78.49;;
73822;Laerm;62152;52.078;8.414;2023-04-03T07:12:29;58.67;50.21;86.80;;
73822;Laerm;62152;52.078;8.414;2023-04-03T07:16:29;54.55;53.13;62.16;;
73822;Laerm;62152;52.078;8.414;2023-04-03T07:24:30;54.44;52.42;55.77;;
73822;Laerm;62152;52.078;8.414;2023-04-03T07:32:32;54.45;52.89;55.77;;
73822;Laerm;62152;52.078;8.414;2023-04-03T07:36:33;54.49;53.04;70.03;;
73822;Laerm;62152;52.078;8.414;2023-04-03T07:40:34;54.46;53.03;55.65;;
73822;Laerm;62152;52.078;8.414;2023-04-03T07:44:36;54.48;53.18;57.30;;
73822;Laerm;62152;52.078;8.414;2023-04-03T07:52:37;54.45;52.19;56.04;;
73822;Laerm;62152;52.078;8.414;2023-04-03T07:56:37;54.48;53.06;55.74;;
73822;Laerm;62152;52.078;8.414;2023-04-03T08:04:39;54.47;52.99;56.47;;
73822;Laerm;62152;52.078;8.414;2023-04-03T08:08:40;54.49;53.02;55.84;;
73822;Laerm;62152;52.078;8.414;2023-04-03T08:16:42;54.45;51.97;55.72;;
73822;Laerm;62152;52.078;8.414;2023-04-03T08:20:43;54.47;53.26;55.77;;
73822;Laerm;62152;52.078;8.414;2023-04-03T08:24:44;54.47;53.20;56.27;;
73822;Laerm;62152;52.078;8.414;2023-04-03T08:28:45;54.47;52.89;55.61;;
73822;Laerm;62152;52.078;8.414;2023-04-03T08:32:46;54.48;53.05;65.34;;
73822;Laerm;62152;52.078;8.414;2023-04-03T08:36:47;54.47;52.85;55.66;;
73822;Laerm;62152;52.078;8.414;2023-04-03T08:44:54;54.45;52.60;56.70;;
73822;Laerm;62152;52.078;8.414;2023-04-03T08:53:01;54.44;52.67;55.96;;
73822;Laerm;62152;52.078;8.414;2023-04-03T08:57:04;54.46;53.10;57.47;;
73822;Laerm;62152;52.078;8.414;2023-04-03T09:01:10;54.47;53.17;55.67;;
73822;Laerm;62152;52.078;8.414;2023-04-03T09:05:19;54.45;52.70;55.69;;
73822;Laerm;62152;52.078;8.414;2023-04-03T09:09:30;54.49;52.98;62.34;;
73822;Laerm;62152;52.078;8.414;2023-04-03T09:13:36;54.48;53.23;65.78;;
73822;Laerm;62152;52.078;8.414;2023-04-03T09:17:43;54.48;53.11;55.76;;
73822;Laerm;62152;52.078;8.414;2023-04-03T09:21:47;54.47;53.08;56.30;;
73822;Laerm;62152;52.078;8.414;2023-04-03T09:25:49;54.46;53.25;55.96;;
73822;Laerm;62152;52.078;8.414;2023-04-03T09:29:53;54.48;52.73;56.07;;
73822;Laerm;62152;52.078;8.414;2023-04-03T09:38:00;61.84;51.60;84.12;;
73822;Laerm;62152;52.078;8.414;2023-04-03T09:42:02;61.03;52.86;85.62;;
73822;Laerm;62152;52.078;8.414;2023-04-03T09:50:20;55.68;52.22;74.64;;
73822;Laerm;62152;52.078;8.414;2023-04-03T09:54:31;55.32;52.71;81.35;;
73822;Laerm;62152;52.078;8.414;2023-04-03T09:58:36;54.76;52.51;69.30;;
73822;Laerm;62152;52.078;8.414;2023-04-03T10:14:54;54.44;51.59;65.49;;
73822;Laerm;62152;52.078;8.414;2023-04-03T10:23:18;54.52;53.04;65.63;;
73822;Laerm;62152;52.078;8.414;2023-04-03T10:31:35;55.62;52.04;80.17;;
73822;Laerm;62152;52.078;8.414;2023-04-03T10:43:59;54.97;53.24;69.41;;
73822;Laerm;62152;52.078;8.414;2023-04-03T10:52:14;55.42;52.95;74.50;;
73822;Laerm;62152;52.078;8.414;2023-04-03T10:56:22;54.84;53.05;67.96;;
73822;Laerm;62152;52.078;8.414;2023-04-03T11:04:36;0.00;0.00;0.00;;
73822;Laerm;62152;52.078;8.414;2023-04-03T11:08:42;54.74;50.94;67.64;;
73822;Laerm;62152;52.078;8.414;2023-04-03T11:16:54;54.78;52.62;74.29;;
73822;Laerm;62152;52.078;8.414;2023-04-03T11:25:06;54.43;50.79;58.03;;
73822;Laerm;62152;52.078;8.414;2023-04-03T11:37:34;54.44;52.45;57.96;;
73822;Laerm;62152;52.078;8.414;2023-04-03T11:41:36;54.47;53.24;55.66;;
73822;Laerm;62152;52.078;8.414;2023-04-03T11:45:40;54.47;52.85;55.92;;
73822;Laerm;62152;52.078;8.414;2023-04-03T11:49:59;54.46;53.06;55.68;;
73822;Laerm;62152;52.078;8.414;2023-04-03T11:54:35;54.46;53.17;55.64;;
73822;Laerm;62152;52.078;8.414;2023-04-03T12:02:37;54.45;53.07;55.57;;
73822;Laerm;62152;52.078;8.414;2023-04-03T12:27:36;54.43;52.22;55.55;;
73822;Laerm;62152;52.078;8.414;2023-04-03T12:31:46;54.44;53.22;55.68;;
73822;Laerm;62152;52.078;8.414;2023-04-03T12:35:59;54.47;52.98;55.76;;
73822;Laerm;62152;52.078;8.414;2023-04-03T12:52:35;54.44;52.13;57.33;;
73822;Laerm;62152;52.078;8.414;2023-04-03T12:56:37;54.47;53.09;55.78;;
73822;Laerm;62152;52.078;8.414;2023-04-03T13:00:37;54.46;53.12;56.25;;
73822;Laerm;62152;52.078;8.414;2023-04-03T13:08:48;54.43;52.57;56.25;;
73822;Laerm;62152;52.078;8.414;2023-04-03T13:12:51;54.46;52.94;55.81;;
73822;Laerm;62152;52.078;8.414;2023-04-03T13:16:56;54.47;53.10;55.69;;
73822;Laerm;62152;52.078;8.414;2023-04-03T13:37:25;54.45;52.33;56.25;;
73822;Laerm;62152;52.078;8.414;2023-04-03T13:41:30;54.51;51.96;59.86;;
73822;Laerm;62152;52.078;8.414;2023-04-03T13:53:43;58.16;29.92;89.69;;
73822;Laerm;62152;52.078;8.414;2023-04-03T13:57:55;54.47;52.99;57.62;;
73822;Laerm;62152;52.078;8.414;2023-04-03T14:02:14;54.47;53.22;55.82;;
73822;Laerm;62152;52.078;8.414;2023-04-03T14:06:16;54.48;53.13;56.66;;
73822;Laerm;62152;52.078;8.414;2023-04-03T14:18:21;54.43;52.51;57.83;;
73822;Laerm;62152;52.078;8.414;2023-04-03T14:22:24;54.47;53.17;58.49;;
73822;Laerm;62152;52.078;8.414;2023-04-03T14:34:30;54.45;52.38;57.00;;
73822;Laerm;62152;52.078;8.414;2023-04-03T14:38:30;54.47;52.95;56.74;;
73822;Laerm;62152;52.078;8.414;2023-04-03T14:42:34;54.47;53.15;55.61;;
73822;Laerm;62152;52.078;8.414;2023-04-03T14:54:36;54.46;52.36;55.88;;
73822;Laerm;62152;52.078;8.414;2023-04-03T14:58:38;54.47;53.24;56.21;;
73822;Laerm;62152;52.078;8.414;2023-04-03T15:02:39;54.47;53.24;56.21;;
73822;Laerm;62152;52.078;8.414;2023-04-03T15:22:43;54.57;51.97;67.01;;
73822;Laerm;62152;52.078;8.414;2023-04-03T15:30:45;54.44;52.73;55.81;;
73822;Laerm;62152;52.078;8.414;2023-04-03T15:42:47;54.46;52.16;61.78;;
73822;Laerm;62152;52.078;8.414;2023-04-03T15:46:49;62.97;52.17;88.73;;
73822;Laerm;62152;52.078;8.414;2023-04-03T15:50:49;65.15;55.36;86.72;;
73822;Laerm;62152;52.078;8.414;2023-04-03T15:58:50;58.20;53.17;82.01;;
73822;Laerm;62152;52.078;8.414;2023-04-03T16:02:55;62.93;52.85;79.98;;
73822;Laerm;62152;52.078;8.414;2023-04-03T16:21:45;61.56;54.25;79.06;;
73822;Laerm;62152;52.078;8.414;2023-04-03T16:29:47;69.61;61.14;89.23;;
73822;Laerm;62152;52.078;8.414;2023-04-03T16:37:50;70.08;54.30;87.20;;
73822;Laerm;62152;52.078;8.414;2023-04-03T16:41:51;63.68;51.59;88.01;;
73822;Laerm;62152;52.078;8.414;2023-04-03T16:45:52;65.18;53.02;94.14;;
73822;Laerm;62152;52.078;8.414;2023-04-03T16:49:53;65.75;52.13;90.45;;
73822;Laerm;62152;52.078;8.414;2023-04-03T16:53:55;66.31;53.48;99.09;;
73822;Laerm;62152;52.078;8.414;2023-04-03T16:57:56;64.60;53.37;95.76;;
73822;Laerm;62152;52.078;8.414;2023-04-03T17:01:57;59.13;51.95;83.09;;
73822;Laerm;62152;52.078;8.414;2023-04-03T17:05:58;55.33;50.55;68.81;;
73822;Laerm;62152;52.078;8.414;2023-04-03T17:10:00;62.57;51.81;88.49;;
73822;Laerm;62152;52.078;8.414;2023-04-03T17:14:02;65.71;52.74;89.71;;
73822;Laerm;62152;52.078;8.414;2023-04-03T17:22:04;55.04;48.37;68.48;;
73822;Laerm;62152;52.078;8.414;2023-04-03T17:26:06;55.26;53.54;74.62;;
73822;Laerm;62152;52.078;8.414;2023-04-03T17:30:08;60.37;52.75;84.92;;
73822;Laerm;62152;52.078;8.414;2023-04-03T17:34:09;58.55;53.21;80.59;;
73822;Laerm;62152;52.078;8.414;2023-04-03T17:38:10;61.61;51.00;86.64;;
73822;Laerm;62152;52.078;8.414;2023-04-03T17:42:12;57.55;53.77;80.15;;
73822;Laerm;62152;52.078;8.414;2023-04-03T17:46:13;55.87;53.66;76.05;;
73822;Laerm;62152;52.078;8.414;2023-04-03T17:50:14;55.37;53.59;68.64;;
73822;Laerm;62152;52.078;8.414;2023-04-03T17:54:15;55.13;53.36;72.41;;
73822;Laerm;62152;52.078;8.414;2023-04-03T17:58:18;60.26;53.49;78.66;;
73822;Laerm;62152;52.078;8.414;2023-04-03T18:06:26;55.09;53.36;61.94;;
73822;Laerm;62152;52.078;8.414;2023-04-03T18:10:27;55.73;53.80;75.10;;
73822;Laerm;62152;52.078;8.414;2023-04-03T18:18:34;63.25;52.62;82.81;;
73822;Laerm;62152;52.078;8.414;2023-04-03T18:22:35;62.59;53.24;89.84;;
73822;Laerm;62152;52.078;8.414;2023-04-03T18:26:36;59.58;53.40;84.74;;
73822;Laerm;62152;52.078;8.414;2023-04-03T18:34:41;56.91;52.59;80.35;;
73822;Laerm;62152;52.078;8.414;2023-04-03T18:38:42;63.46;53.53;85.55;;
73822;Laerm;62152;52.078;8.414;2023-04-03T18:42:43;55.21;53.30;70.23;;
73822;Laerm;62152;52.078;8.414;2023-04-03T18:46:46;54.98;53.51;70.56;;
73822;Laerm;62152;52.078;8.414;2023-04-03T18:50:48;56.58;53.52;79.24;;
73822;Laerm;62152;52.078;8.414;2023-04-03T18:54:49;65.15;53.21;86.25;;
73822;Laerm;62152;52.078;8.414;2023-04-03T18:58:49;55.44;53.31;77.71;;
73822;Laerm;62152;52.078;8.414;2023-04-03T19:02:52;55.31;53.49;71.22;;
73822;Laerm;62152;52.078;8.414;2023-04-03T19:06:54;54.99;53.46;66.46;;
73822;Laerm;62152;52.078;8.414;2023-04-03T19:10:55;55.36;53.33;71.91;;
73822;Laerm;62152;52.078;8.414;2023-04-03T19:14:56;55.29;50.90;72.05;;
73822;Laerm;62152;52.078;8.414;2023-04-03T19:18:58;54.98;53.33;70.90;;
73822;Laerm;62152;52.078;8.414;2023-04-03T19:22:59;59.98;53.31;84.97;;
73822;Laerm;62152;52.078;8.414;2023-04-03T19:27:00;62.55;53.24;85.03;;
73822;Laerm;62152;52.078;8.414;2023-04-03T19:31:01;55.29;53.35;71.76;;
73822;Laerm;62152;52.078;8.414;2023-04-03T19:35:04;56.44;53.00;77.78;;
73822;Laerm;62152;52.078;8.414;2023-04-03T19:39:05;56.98;53.22;78.25;;
73822;Laerm;62152;52.078;8.414;2023-04-03T19:43:06;54.90;53.64;67.47;;
73822;Laerm;62152;52.078;8.414;2023-04-03T19:47:07;54.93;53.46;64.91;;
73822;Laerm;62152;52.078;8.414;2023-04-03T19:51:10;55.01;53.18;73.16;;
73822;Laerm;62152;52.078;8.414;2023-04-03T19:55:10;54.85;53.51;70.87;;
73822;Laerm;62152;52.078;8.414;2023-04-03T19:59:12;54.89;53.31;69.67;;
73822;Laerm;62152;52.078;8.414;2023-04-03T20:03:12;55.05;53.49;69.43;;
73822;Laerm;62152;52.078;8.414;2023-04-03T20:07:15;55.05;53.49;69.43;;
73822;Laerm;62152;52.078;8.414;2023-04-03T20:11:15;60.76;53.53;81.83;;
73822;Laerm;62152;52.078;8.414;2023-04-03T20:15:17;55.00;53.01;70.35;;
73822;Laerm;62152;52.078;8.414;2023-04-03T20:19:19;58.95;53.35;83.50;;
73822;Laerm;62152;52.078;8.414;2023-04-03T20:27:24;54.95;52.94;70.72;;
73822;Laerm;62152;52.078;8.414;2023-04-03T20:31:27;54.99;53.49;68.75;;
73822;Laerm;62152;52.078;8.414;2023-04-03T20:35:28;54.89;53.12;68.10;;
73822;Laerm;62152;52.078;8.414;2023-04-03T20:39:30;54.89;53.50;64.75;;
73822;Laerm;62152;52.078;8.414;2023-04-03T20:43:32;55.09;53.55;69.91;;
73822;Laerm;62152;52.078;8.414;2023-04-03T20:47:33;54.89;53.29;71.02;;
73822;Laerm;62152;52.078;8.414;2023-04-03T20:51:34;54.82;53.44;65.84;;
73822;Laerm;62152;52.078;8.414;2023-04-03T20:55:36;54.79;53.47;69.96;;
73822;Laerm;62152;52.078;8.414;2023-04-03T20:59:37;54.80;53.30;63.79;;
73822;Laerm;62152;52.078;8.414;2023-04-03T21:03:38;54.99;53.49;73.59;;
73822;Laerm;62152;52.078;8.414;2023-04-03T21:21:34;54.69;53.39;57.23;;
73822;Laerm;62152;52.078;8.414;2023-04-03T21:25:35;54.69;53.39;55.97;;
73822;Laerm;62152;52.078;8.414;2023-04-03T21:29:36;54.71;53.40;55.85;;
73822;Laerm;62152;52.078;8.414;2023-04-03T21:33:37;54.70;53.46;55.91;;
73822;Laerm;62152;52.078;8.414;2023-04-03T21:37:39;54.70;53.24;56.12;;
73822;Laerm;62152;52.078;8.414;2023-04-03T21:41:40;54.68;53.40;55.87;;
73822;Laerm;62152;52.078;8.414;2023-04-03T21:45:41;54.70;53.47;56.16;;
73822;Laerm;62152;52.078;8.414;2023-04-03T21:49:42;54.71;53.30;56.03;;
73822;Laerm;62152;52.078;8.414;2023-04-03T21:53:44;54.70;53.45;55.84;;
73822;Laerm;62152;52.078;8.414;2023-04-03T21:57:49;54.71;53.34;55.80;;
73822;Laerm;62152;52.078;8.414;2023-04-03T22:01:50;54.69;53.33;55.87;;
73822;Laerm;62152;52.078;8.414;2023-04-03T22:05:51;54.70;53.28;56.11;;
73822;Laerm;62152;52.078;8.414;2023-04-03T22:09:53;54.70;53.31;55.86;;
73822;Laerm;62152;52.078;8.414;2023-04-03T22:13:54;54.71;53.23;56.12;;
73822;Laerm;62152;52.078;8.414;2023-04-03T22:17:55;54.93;53.19;61.43;;
73822;Laerm;62152;52.078;8.414;2023-04-03T22:21:56;54.70;53.48;55.85;;
73822;Laerm;62152;52.078;8.414;2023-04-03T22:25:59;54.71;53.37;56.49;;
73822;Laerm;62152;52.078;8.414;2023-04-03T22:30:00;54.70;53.32;55.97;;
73822;Laerm;62152;52.078;8.414;2023-04-03T22:34:01;54.72;53.36;55.82;;
73822;Laerm;62152;52.078;8.414;2023-04-03T22:38:02;54.71;53.30;55.86;;
73822;Laerm;62152;52.078;8.414;2023-04-03T22:42:04;54.72;53.22;55.91;;
73822;Laerm;62152;52.078;8.414;2023-04-03T22:46:08;54.73;53.45;55.83;;
73822;Laerm;62152;52.078;8.414;2023-04-03T22:50:09;54.73;53.28;55.99;;
73822;Laerm;62152;52.078;8.414;2023-04-03T22:54:10;54.71;53.55;55.84;;
73822;Laerm;62152;52.078;8.414;2023-04-03T23:02:13;54.70;52.64;56.04;;
73822;Laerm;62152;52.078;8.414;2023-04-03T23:06:14;54.72;53.17;55.90;;
73822;Laerm;62152;52.078;8.414;2023-04-03T23:10:15;54.72;53.22;55.92;;
73822;Laerm;62152;52.078;8.414;2023-04-03T23:14:17;54.73;53.44;56.07;;
73822;Laerm;62152;52.078;8.414;2023-04-03T23:18:18;54.73;53.37;56.02;;
73822;Laerm;62152;52.078;8.414;2023-04-03T23:22:19;54.74;53.27;64.38;;
73822;Laerm;62152;52.078;8.414;2023-04-03T23:26:20;54.72;53.29;56.00;;
73822;Laerm;62152;52.078;8.414;2023-04-03T23:30:22;54.73;53.32;56.10;;
73822;Laerm;62152;52.078;8.414;2023-04-03T23:34:23;54.76;53.43;55.90;;
73822;Laerm;62152;52.078;8.414;2023-04-03T23:38:24;54.74;53.34;55.95;;
73822;Laerm;62152;52.078;8.414;2023-04-03T23:46:27;54.69;53.04;55.91;;
73822;Laerm;62152;52.078;8.414;2023-04-03T23:50:28;54.73;53.28;55.99;;
73822;Laerm;62152;52.078;8.414;2023-04-03T23:54:29;54.73;53.40;55.92;;
73822;Laerm;62152;52.078;8.414;2023-04-03T23:58:30;54.74;53.39;56.05;;
